createdAt,value
2022-12-29T00:01:51.395Z,1.30
2022-12-29T00:04:23.952Z,1.20
2022-12-29T00:07:07.715Z,1.30
2022-12-29T00:09:51.380Z,1.30
2022-12-29T00:12:23.223Z,1.30
2022-12-29T00:15:13.852Z,1.30
2022-12-29T00:17:50.348Z,1.30
2022-12-29T00:20:39.482Z,1.30
2022-12-29T00:23:34.144Z,1.30
2022-12-29T00:26:43.383Z,1.30
2022-12-29T00:29:32.688Z,1.30
2022-12-29T00:32:30.616Z,1.30
2022-12-29T00:38:52.685Z,1.20
2022-12-29T00:41:51.345Z,1.20
2022-12-29T00:44:24.549Z,1.20
2022-12-29T00:46:56.561Z,1.30
2022-12-29T00:49:32.214Z,1.20
2022-12-29T00:52:08.718Z,1.20
2022-12-29T00:54:52.460Z,1.30
2022-12-29T00:57:29.783Z,1.30
2022-12-29T00:59:59.213Z,1.30
2022-12-29T01:02:35.869Z,1.30
2022-12-29T01:05:13.375Z,1.30
2022-12-29T01:07:47.801Z,1.40
2022-12-29T01:10:29.014Z,1.40
2022-12-29T01:12:58.394Z,1.40
2022-12-29T01:15:34.746Z,1.40
2022-12-29T01:18:08.399Z,1.40
2022-12-29T01:20:42.405Z,1.50
2022-12-29T01:23:11.652Z,1.50
2022-12-29T01:25:44.270Z,1.50
2022-12-29T01:28:15.396Z,1.50
2022-12-29T01:30:44.325Z,1.40
2022-12-29T01:33:22.290Z,1.40
2022-12-29T01:35:57.471Z,1.40
2022-12-29T01:38:28.433Z,1.40
2022-12-29T01:41:00.699Z,1.40
2022-12-29T01:43:45.196Z,1.40
2022-12-29T01:46:27.892Z,1.40
2022-12-29T01:49:10.103Z,1.40
2022-12-29T01:51:45.558Z,1.40
2022-12-29T01:54:21.230Z,1.40
2022-12-29T01:56:56.807Z,1.40
2022-12-29T01:59:32.376Z,1.40
2022-12-29T02:02:05.054Z,1.40
2022-12-29T02:04:45.614Z,1.40
2022-12-29T02:07:27.426Z,1.40
2022-12-29T02:10:01.145Z,1.40
2022-12-29T02:12:32.530Z,1.40
2022-12-29T02:15:08.775Z,1.40
2022-12-29T02:18:07.366Z,1.40
2022-12-29T02:21:10.002Z,1.40
2022-12-29T02:24:15.043Z,1.40
2022-12-29T02:27:14.121Z,1.40
2022-12-29T02:30:11.881Z,1.40
2022-12-29T02:32:54.968Z,1.40
2022-12-29T02:35:39.731Z,1.40
2022-12-29T02:38:25.416Z,1.40
2022-12-29T02:41:11.213Z,1.40
2022-12-29T02:43:46.429Z,1.40
2022-12-29T02:46:32.272Z,1.40
2022-12-29T02:49:17.878Z,1.40
2022-12-29T02:51:55.723Z,1.40
2022-12-29T02:54:48.772Z,1.40
2022-12-29T02:57:36.503Z,1.40
2022-12-29T03:00:15.949Z,1.40
2022-12-29T03:03:17.711Z,1.40
2022-12-29T03:06:09.224Z,1.50
2022-12-29T03:08:47.216Z,1.50
2022-12-29T03:11:31.566Z,1.50
2022-12-29T03:14:28.883Z,1.50
2022-12-29T03:17:13.377Z,1.50
2022-12-29T03:19:51.674Z,1.50
2022-12-29T03:25:12.200Z,1.60
2022-12-29T03:27:46.011Z,1.60
2022-12-29T03:30:42.452Z,1.60
2022-12-29T03:33:24.959Z,1.70
2022-12-29T03:36:02.849Z,1.60
2022-12-29T03:38:49.949Z,1.50
2022-12-29T03:41:23.001Z,1.50
2022-12-29T03:43:56.883Z,1.60
2022-12-29T03:46:48.071Z,1.50
2022-12-29T03:49:20.860Z,1.50
2022-12-29T03:51:51.966Z,1.50
2022-12-29T03:54:23.850Z,1.60
2022-12-29T03:56:59.598Z,1.60
2022-12-29T03:59:43.877Z,1.60
2022-12-29T04:02:16.059Z,1.60
2022-12-29T04:04:49.720Z,1.70
2022-12-29T04:07:25.663Z,1.70
2022-12-29T04:10:08.033Z,1.70
2022-12-29T04:12:43.555Z,1.70
2022-12-29T04:15:22.804Z,1.80
2022-12-29T04:18:09.551Z,1.80
2022-12-29T04:20:58.269Z,1.70
2022-12-29T04:23:53.908Z,1.70
2022-12-29T04:26:29.994Z,1.70
2022-12-29T04:29:25.768Z,1.80
2022-12-29T04:32:30.965Z,1.70
2022-12-29T04:35:18.867Z,1.70
2022-12-29T04:37:55.549Z,1.70
2022-12-29T04:40:42.439Z,1.70
2022-12-29T04:43:19.941Z,1.70
2022-12-29T04:46:13.784Z,1.70
2022-12-29T04:48:52.533Z,1.60
2022-12-29T04:52:08.953Z,1.70
2022-12-29T04:54:42.946Z,1.70
2022-12-29T04:57:22.073Z,1.70
2022-12-29T05:00:02.652Z,1.70
2022-12-29T05:02:35.891Z,1.70
2022-12-29T05:05:12.145Z,1.70
2022-12-29T05:07:56.860Z,1.80
2022-12-29T05:10:28.747Z,1.70
2022-12-29T05:13:10.028Z,1.70
2022-12-29T05:15:50.371Z,1.60
2022-12-29T05:18:36.035Z,1.60
2022-12-29T05:21:09.561Z,1.70
2022-12-29T05:23:52.323Z,1.70
2022-12-29T05:26:27.717Z,1.70
2022-12-29T05:29:09.267Z,1.70
2022-12-29T05:31:52.222Z,1.70
2022-12-29T05:34:24.914Z,1.70
2022-12-29T05:36:58.678Z,1.70
2022-12-29T05:39:29.143Z,1.70
2022-12-29T05:42:11.579Z,1.70
2022-12-29T05:46:45.479Z,1.70
2022-12-29T05:48:24.534Z,1.70
2022-12-29T05:51:23.495Z,1.80
2022-12-29T05:54:13.537Z,1.80
2022-12-29T05:56:49.957Z,1.80
2022-12-29T05:59:21.606Z,1.80
2022-12-29T06:01:51.902Z,1.80
2022-12-29T06:04:32.812Z,1.80
2022-12-29T06:07:38.873Z,1.80
2022-12-29T06:13:08.388Z,1.80
2022-12-29T06:15:47.182Z,1.80
2022-12-29T06:18:21.379Z,1.80
2022-12-29T06:21:07.024Z,1.80
2022-12-29T06:23:39.757Z,1.80
2022-12-29T06:26:43.036Z,1.80
2022-12-29T06:29:18.095Z,1.80
2022-12-29T06:31:52.417Z,1.80
2022-12-29T06:34:38.451Z,1.70
2022-12-29T06:37:11.685Z,1.80
2022-12-29T06:39:48.433Z,1.80
2022-12-29T06:42:19.429Z,1.80
2022-12-29T06:45:28.719Z,1.80
2022-12-29T06:48:20.444Z,1.80
2022-12-29T06:51:04.710Z,1.90
2022-12-29T06:53:42.849Z,1.90
2022-12-29T06:56:19.632Z,1.80
2022-12-29T06:58:55.981Z,1.80
2022-12-29T07:01:31.568Z,1.80
2022-12-29T07:04:08.969Z,1.80
2022-12-29T07:06:45.362Z,1.80
2022-12-29T07:09:23.453Z,1.90
2022-12-29T07:11:53.763Z,1.90
2022-12-29T07:14:22.863Z,1.90
2022-12-29T07:16:57.959Z,1.90
2022-12-29T07:19:34.789Z,1.90
2022-12-29T07:22:24.491Z,1.80
2022-12-29T07:25:23.075Z,1.90
2022-12-29T07:28:01.120Z,1.90
2022-12-29T07:30:39.882Z,1.90
2022-12-29T07:33:14.092Z,1.90
2022-12-29T07:35:43.598Z,1.80
2022-12-29T07:38:19.449Z,1.90
2022-12-29T07:41:03.963Z,1.90
2022-12-29T07:43:39.498Z,1.90
2022-12-29T07:49:37.126Z,1.90
2022-12-29T07:52:11.246Z,1.90
2022-12-29T07:54:45.007Z,1.90
2022-12-29T07:57:31.303Z,1.90
2022-12-29T08:00:14.379Z,2.00
2022-12-29T08:05:43.265Z,2.00
2022-12-29T08:11:08.456Z,2.20
2022-12-29T08:14:23.957Z,2.20
2022-12-29T08:17:01.597Z,2.20
2022-12-29T08:19:51.799Z,2.10
2022-12-29T08:22:34.205Z,2.10
2022-12-29T08:25:10.072Z,2.10
2022-12-29T08:27:54.179Z,2.10
2022-12-29T08:30:35.377Z,2.10
2022-12-29T08:33:20.283Z,2.10
2022-12-29T08:36:11.512Z,2.10
2022-12-29T08:42:00.449Z,2.10
2022-12-29T08:44:42.472Z,2.10
2022-12-29T08:47:44.419Z,2.10
2022-12-29T08:50:22.411Z,2.20
2022-12-29T08:53:06.327Z,2.20
2022-12-29T08:55:36.531Z,2.20
2022-12-29T08:58:16.118Z,2.20
2022-12-29T09:01:23.431Z,2.20
2022-12-29T09:04:17.824Z,2.20
2022-12-29T09:07:03.897Z,2.20
2022-12-29T09:09:45.138Z,2.20
2022-12-29T09:12:30.209Z,2.20
2022-12-29T09:15:10.265Z,2.20
2022-12-29T09:18:16.291Z,2.20
2022-12-29T09:21:16.027Z,2.20
2022-12-29T09:24:16.668Z,2.20
2022-12-29T09:26:54.567Z,2.20
2022-12-29T09:29:45.431Z,2.30
2022-12-29T09:32:22.936Z,2.30
2022-12-29T09:35:06.291Z,2.30
2022-12-29T09:37:40.278Z,2.40
2022-12-29T09:40:24.550Z,2.40
2022-12-29T09:43:35.852Z,2.50
2022-12-29T09:46:30.808Z,2.50
2022-12-29T09:49:34.404Z,2.40
2022-12-29T09:52:12.043Z,2.50
2022-12-29T09:55:06.293Z,2.50
2022-12-29T09:57:44.743Z,2.40
2022-12-29T10:00:22.528Z,2.50
2022-12-29T10:02:57.635Z,2.50
2022-12-29T10:05:33.852Z,2.60
2022-12-29T10:08:19.106Z,2.40
2022-12-29T10:11:35.158Z,2.40
2022-12-29T10:14:39.039Z,2.60
2022-12-29T10:17:31.496Z,2.70
2022-12-29T10:20:31.881Z,2.80
2022-12-29T10:23:30.525Z,2.60
2022-12-29T10:26:23.264Z,2.50
2022-12-29T10:29:15.763Z,2.50
2022-12-29T10:32:04.475Z,2.50
2022-12-29T10:35:13.232Z,2.50
2022-12-29T10:42:01.950Z,2.50
2022-12-29T10:48:38.429Z,2.60
2022-12-29T10:51:38.579Z,2.60
2022-12-29T10:54:53.978Z,2.60
2022-12-29T10:59:01.828Z,2.60
2022-12-29T11:01:30.623Z,2.60
2022-12-29T11:04:35.689Z,2.60
2022-12-29T11:07:29.207Z,2.60
2022-12-29T11:10:29.239Z,2.60
2022-12-29T11:13:46.493Z,2.60
2022-12-29T11:16:48.231Z,2.60
2022-12-29T11:19:41.073Z,2.60
2022-12-29T11:22:28.444Z,2.60
2022-12-29T11:25:26.234Z,2.50
2022-12-29T11:28:10.325Z,2.50
2022-12-29T11:30:53.650Z,2.50
2022-12-29T11:33:49.745Z,2.60
2022-12-29T11:36:25.647Z,2.60
2022-12-29T11:39:25.143Z,2.60
2022-12-29T11:42:18.158Z,2.60
2022-12-29T11:45:17.678Z,2.70
2022-12-29T11:48:18.184Z,2.70
2022-12-29T11:51:25.588Z,2.60
2022-12-29T11:54:16.207Z,2.70
2022-12-29T12:50:27.845Z,2.80
2022-12-29T12:53:19.591Z,2.80
2022-12-29T12:56:27.135Z,2.80
2022-12-29T12:59:09.856Z,2.80
2022-12-29T13:01:48.387Z,2.80
2022-12-29T13:04:44.248Z,2.80
2022-12-29T13:07:27.025Z,2.80
2022-12-29T13:10:21.898Z,2.80
2022-12-29T13:12:58.240Z,2.80
2022-12-29T13:15:44.624Z,2.90
2022-12-29T13:18:24.541Z,2.90
2022-12-29T13:21:01.344Z,2.80
2022-12-29T13:23:43.034Z,2.70
2022-12-29T13:26:17.809Z,2.80
2022-12-29T13:28:53.932Z,2.80
2022-12-29T13:31:33.000Z,2.80
2022-12-29T13:34:09.492Z,2.90
2022-12-29T13:36:44.672Z,2.80
2022-12-29T13:39:22.171Z,2.80
2022-12-29T13:41:56.094Z,2.80
2022-12-29T13:44:33.273Z,2.80
2022-12-29T13:47:16.665Z,2.80
2022-12-29T13:49:46.850Z,2.70
2022-12-29T13:52:24.191Z,2.80
2022-12-29T13:55:04.781Z,2.80
2022-12-29T13:57:43.865Z,2.80
2022-12-29T14:00:17.885Z,2.80
2022-12-29T14:03:12.753Z,2.90
2022-12-29T14:05:43.306Z,2.90
2022-12-29T14:08:20.255Z,2.80
2022-12-29T14:10:54.713Z,2.80
2022-12-29T14:13:27.877Z,2.90
2022-12-29T14:16:00.009Z,3.00
2022-12-29T14:18:31.340Z,2.90
2022-12-29T14:21:04.315Z,2.90
2022-12-29T14:23:47.010Z,2.90
2022-12-29T14:26:21.250Z,2.90
2022-12-29T14:28:51.588Z,2.90
2022-12-29T14:31:42.500Z,2.90
2022-12-29T14:34:41.198Z,2.90
2022-12-29T14:37:28.469Z,2.90
2022-12-29T14:40:19.057Z,2.90
2022-12-29T14:42:53.118Z,2.90
2022-12-29T14:45:31.262Z,2.90
2022-12-29T14:48:01.620Z,2.90
2022-12-29T14:50:42.136Z,2.90
2022-12-29T14:53:46.674Z,2.90
2022-12-29T14:56:18.182Z,2.90
2022-12-29T14:58:53.869Z,2.90
2022-12-29T15:01:29.787Z,2.90
2022-12-29T15:04:06.855Z,2.90
2022-12-29T15:06:42.962Z,2.90
2022-12-29T15:09:25.068Z,3.00
2022-12-29T15:11:58.341Z,2.90
2022-12-29T15:14:34.696Z,2.90
2022-12-29T15:17:14.083Z,2.90
2022-12-29T15:19:43.361Z,2.80
2022-12-29T15:22:14.966Z,2.90
2022-12-29T15:24:46.471Z,2.90
2022-12-29T15:27:17.967Z,2.90
2022-12-29T15:29:50.674Z,2.90
2022-12-29T15:32:23.903Z,2.90
2022-12-29T15:34:56.582Z,2.90
2022-12-29T15:37:29.134Z,2.90
2022-12-29T15:40:00.429Z,2.90
2022-12-29T15:43:18.032Z,2.90
2022-12-29T15:45:51.195Z,2.90
2022-12-29T15:48:24.067Z,3.00
2022-12-29T15:50:55.727Z,2.90
2022-12-29T15:53:30.608Z,2.90
2022-12-29T15:56:03.757Z,2.90
2022-12-29T15:58:41.261Z,2.90
2022-12-29T16:04:10.592Z,2.90
2022-12-29T16:06:41.230Z,2.90
2022-12-29T16:09:18.895Z,2.90
2022-12-29T16:11:54.205Z,3.00
2022-12-29T16:14:28.601Z,2.90
2022-12-29T16:17:02.969Z,2.90
2022-12-29T16:19:37.552Z,2.90
2022-12-29T16:22:13.501Z,3.00
2022-12-29T16:24:43.048Z,3.00
2022-12-29T16:27:21.366Z,3.00
2022-12-29T16:29:54.064Z,2.90
2022-12-29T16:32:30.531Z,3.00
2022-12-29T16:35:14.768Z,3.00
2022-12-29T16:37:43.952Z,3.00
2022-12-29T16:40:32.445Z,3.00
2022-12-29T16:43:03.045Z,3.00
2022-12-29T16:46:26.006Z,3.00
2022-12-29T16:49:00.413Z,3.00
2022-12-29T16:51:37.757Z,3.00
2022-12-29T16:54:08.602Z,3.00
2022-12-29T16:56:46.372Z,3.00
2022-12-29T16:59:32.213Z,3.00
2022-12-29T17:02:03.735Z,3.00
2022-12-29T17:04:34.312Z,3.00
2022-12-29T17:07:03.534Z,3.00
2022-12-29T17:09:33.657Z,3.00
2022-12-29T17:12:10.747Z,3.00
2022-12-29T17:17:18.033Z,3.10
2022-12-29T17:19:51.800Z,3.10
2022-12-29T17:22:25.399Z,3.10
2022-12-29T17:24:55.519Z,3.10
2022-12-29T17:27:29.895Z,3.10
2022-12-29T17:30:02.296Z,3.10
2022-12-29T17:32:31.955Z,3.10
2022-12-29T17:35:01.971Z,3.10
2022-12-29T17:37:33.734Z,3.10
2022-12-29T17:40:03.769Z,3.10
2022-12-29T17:42:35.094Z,3.10
2022-12-29T17:45:05.545Z,3.10
2022-12-29T17:47:34.636Z,3.10
2022-12-29T17:50:05.621Z,3.10
2022-12-29T17:52:34.940Z,3.10
2022-12-29T17:55:03.957Z,3.20
2022-12-29T17:57:32.764Z,3.20
2022-12-29T18:00:01.894Z,3.20
2022-12-29T18:02:41.499Z,3.20
2022-12-29T18:05:20.234Z,3.20
2022-12-29T18:07:49.741Z,3.20
2022-12-29T18:10:19.203Z,3.20
2022-12-29T18:12:50.427Z,3.20
2022-12-29T18:15:23.491Z,3.20
2022-12-29T18:18:02.893Z,3.20
2022-12-29T18:20:36.846Z,3.20
2022-12-29T18:23:06.250Z,3.20
2022-12-29T18:25:44.068Z,3.20
2022-12-29T18:28:13.575Z,3.20
2022-12-29T18:30:43.045Z,3.20
2022-12-29T18:33:23.303Z,3.20
2022-12-29T18:35:59.416Z,3.20
2022-12-29T18:38:30.007Z,3.20
2022-12-29T18:41:00.300Z,3.20
2022-12-29T18:43:33.492Z,3.20
2022-12-29T18:46:02.667Z,3.20
2022-12-29T18:54:43.816Z,3.20
2022-12-29T18:57:14.254Z,3.20
2022-12-29T18:59:43.512Z,3.30
2022-12-29T19:02:18.563Z,3.30
2022-12-29T19:04:52.731Z,3.30
2022-12-29T19:07:23.907Z,3.30
2022-12-29T19:09:53.154Z,3.30
2022-12-29T19:12:28.213Z,3.30
2022-12-29T19:14:57.385Z,3.30
2022-12-29T19:17:26.137Z,3.20
2022-12-29T19:19:54.929Z,3.20
2022-12-29T19:22:25.520Z,3.20
2022-12-29T19:24:59.712Z,3.30
2022-12-29T19:27:31.175Z,3.20
2022-12-29T19:30:00.464Z,3.20
2022-12-29T19:32:29.243Z,3.20
2022-12-29T19:34:58.258Z,3.30
2022-12-29T19:37:28.621Z,3.30
2022-12-29T19:39:57.984Z,3.20
2022-12-29T19:42:26.902Z,3.30
2022-12-29T19:44:55.920Z,3.30
2022-12-29T19:47:30.132Z,3.30
2022-12-29T19:50:01.538Z,3.30
2022-12-29T19:52:32.273Z,3.30
2022-12-29T19:55:01.744Z,3.30
2022-12-29T19:57:32.432Z,3.20
2022-12-29T20:00:01.837Z,3.30
2022-12-29T20:02:41.129Z,3.30
2022-12-29T20:05:11.848Z,3.30
2022-12-29T20:07:42.527Z,3.30
2022-12-29T20:10:12.876Z,3.20
2022-12-29T20:12:42.343Z,3.30
2022-12-29T20:15:12.704Z,3.30
2022-12-29T20:20:31.245Z,3.30
2022-12-29T20:23:01.856Z,3.30
2022-12-29T20:25:47.489Z,3.30
2022-12-29T20:28:18.380Z,3.30
2022-12-29T20:30:55.422Z,3.30
2022-12-29T20:33:24.975Z,3.40
2022-12-29T20:35:54.511Z,3.40
2022-12-29T20:38:26.454Z,3.40
2022-12-29T20:40:57.705Z,3.40
2022-12-29T20:43:26.640Z,3.30
2022-12-29T20:45:55.863Z,3.40
2022-12-29T20:48:24.827Z,3.40
2022-12-29T20:50:54.174Z,3.40
2022-12-29T20:53:24.417Z,3.40
2022-12-29T20:55:53.240Z,3.40
2022-12-29T20:58:24.611Z,3.30
2022-12-29T21:00:54.794Z,3.30
2022-12-29T21:03:26.001Z,3.30
2022-12-29T21:05:55.538Z,3.40
2022-12-29T21:08:26.538Z,3.40
2022-12-29T21:10:55.606Z,3.40
2022-12-29T21:13:24.702Z,3.30
2022-12-29T21:15:58.470Z,3.30
2022-12-29T21:18:27.839Z,3.30
2022-12-29T21:20:58.007Z,3.40
2022-12-29T21:23:29.869Z,3.40
2022-12-29T21:26:01.001Z,3.30
2022-12-29T21:31:09.880Z,3.50
2022-12-29T21:33:39.288Z,3.50
2022-12-29T21:36:10.883Z,3.50
2022-12-29T21:38:42.975Z,3.50
2022-12-29T21:41:15.146Z,3.50
2022-12-29T21:44:05.515Z,3.50
2022-12-29T21:46:34.240Z,3.50
2022-12-29T21:49:03.347Z,3.50
2022-12-29T21:51:50.231Z,3.50
2022-12-29T21:54:42.433Z,3.50
2022-12-29T21:57:33.979Z,3.50
2022-12-29T22:00:22.944Z,3.60
2022-12-29T22:03:16.485Z,3.60
2022-12-29T22:06:06.893Z,3.60
2022-12-29T22:08:53.588Z,3.50
2022-12-29T22:11:41.534Z,3.60
2022-12-29T22:14:20.159Z,3.60
2022-12-29T22:16:50.232Z,3.70
2022-12-29T22:19:20.299Z,3.70
2022-12-29T22:21:53.383Z,3.70
2022-12-29T22:24:24.241Z,3.70
2022-12-29T22:26:54.871Z,3.70
2022-12-29T22:29:23.993Z,3.70
2022-12-29T22:31:52.952Z,3.70
2022-12-29T22:34:22.297Z,3.70
2022-12-29T22:36:51.865Z,3.70
2022-12-29T22:39:21.135Z,3.60
2022-12-29T22:41:51.594Z,3.60
2022-12-29T22:44:23.707Z,3.60
2022-12-29T22:46:54.063Z,3.70
2022-12-29T22:49:24.407Z,3.70
2022-12-29T22:51:54.292Z,3.60
2022-12-29T22:54:23.980Z,3.50
2022-12-29T22:56:52.749Z,3.60
2022-12-29T22:59:23.537Z,3.70
2022-12-29T23:01:53.192Z,3.70
2022-12-29T23:07:11.298Z,3.80
2022-12-29T23:09:40.616Z,3.80
2022-12-29T23:12:09.878Z,3.80
2022-12-29T23:14:40.346Z,3.90
2022-12-29T23:17:09.731Z,3.90
2022-12-29T23:19:39.218Z,3.90
2022-12-29T23:22:10.112Z,3.90
2022-12-29T23:24:39.196Z,3.90
2022-12-29T23:27:08.584Z,4.00
2022-12-29T23:29:40.100Z,3.90
2022-12-29T23:32:09.730Z,4.00
2022-12-29T23:34:39.587Z,4.00
2022-12-29T23:37:08.838Z,4.00
2022-12-29T23:39:38.000Z,4.00
2022-12-29T23:42:07.542Z,4.00
2022-12-29T23:44:36.511Z,4.10
2022-12-29T23:47:09.555Z,4.10
2022-12-29T23:49:39.261Z,4.10
2022-12-29T23:52:08.863Z,4.10
2022-12-29T23:54:37.593Z,4.20
2022-12-29T23:57:06.200Z,4.20
2022-12-29T23:59:35.333Z,4.20
